createdAt,value
2023-02-19T00:00:38.113Z,4.97
2023-02-19T00:03:40.762Z,3.92
2023-02-19T00:06:43.925Z,4.40
2023-02-19T00:09:45.514Z,4.45
2023-02-19T00:12:47.140Z,4.57
2023-02-19T00:15:49.543Z,6.43
2023-02-19T00:18:52.312Z,4.50
2023-02-19T00:21:54.657Z,4.60
2023-02-19T00:24:56.210Z,4.13
2023-02-19T00:27:57.771Z,4.00
2023-02-19T00:31:23.737Z,4.70
2023-02-19T00:34:25.481Z,4.28
2023-02-19T00:37:27.117Z,3.65
2023-02-19T00:40:28.706Z,3.10
2023-02-19T00:43:30.402Z,3.80
2023-02-19T00:46:36.302Z,3.50
2023-02-19T00:49:38.073Z,3.35
2023-02-19T00:52:39.944Z,3.17
2023-02-19T00:55:42.137Z,3.25
2023-02-19T00:58:44.049Z,4.38
2023-02-19T01:01:45.816Z,3.27
2023-02-19T01:04:47.549Z,3.00
2023-02-19T01:07:49.160Z,2.92
2023-02-19T01:10:51.038Z,4.05
2023-02-19T01:13:52.913Z,4.18
2023-02-19T01:16:54.520Z,3.63
2023-02-19T01:19:56.083Z,3.10
2023-02-19T01:22:57.700Z,3.47
2023-02-19T01:25:59.433Z,5.85
2023-02-19T01:29:01.337Z,3.35
2023-02-19T01:32:03.015Z,2.57
2023-02-19T01:35:05.431Z,2.70
2023-02-19T01:38:10.424Z,2.72
2023-02-19T01:41:15.801Z,3.22
2023-02-19T01:44:18.414Z,2.80
2023-02-19T01:47:20.390Z,2.97
2023-02-19T01:50:23.199Z,2.30
2023-02-19T01:53:29.872Z,2.80
2023-02-19T01:56:34.497Z,2.95
2023-02-19T01:59:36.672Z,3.45
2023-02-19T02:02:41.084Z,3.13
2023-02-19T02:05:50.434Z,3.10
2023-02-19T02:09:14.103Z,2.55
2023-02-19T02:12:15.821Z,2.42
2023-02-19T02:15:18.386Z,3.25
2023-02-19T02:18:50.906Z,2.90
2023-02-19T02:22:31.059Z,2.75
2023-02-19T02:25:58.875Z,3.40
2023-02-19T02:29:39.080Z,3.33
2023-02-19T02:32:54.461Z,2.85
2023-02-19T02:36:27.014Z,2.00
2023-02-19T02:39:32.209Z,2.70
2023-02-19T02:42:35.392Z,2.55
2023-02-19T02:45:37.593Z,2.88
2023-02-19T02:48:55.507Z,2.95
2023-02-19T02:51:58.350Z,3.80
2023-02-19T02:55:05.741Z,2.90
2023-02-19T02:58:08.731Z,3.08
2023-02-19T03:01:33.815Z,3.60
2023-02-19T03:05:16.460Z,4.13
2023-02-19T03:08:39.953Z,3.10
2023-02-19T03:12:05.061Z,3.72
2023-02-19T03:15:28.988Z,3.13
2023-02-19T03:18:52.081Z,2.15
2023-02-19T03:22:21.196Z,4.10
2023-02-19T03:25:45.404Z,2.80
2023-02-19T03:29:08.414Z,3.20
2023-02-19T03:32:25.111Z,3.42
2023-02-19T03:35:40.186Z,2.92
2023-02-19T03:39:06.805Z,2.88
2023-02-19T03:42:19.507Z,2.13
2023-02-19T03:45:24.481Z,2.40
2023-02-19T03:48:38.208Z,2.53
2023-02-19T03:51:50.669Z,2.72
2023-02-19T03:55:00.696Z,2.40
2023-02-19T03:58:08.948Z,1.90
2023-02-19T04:01:17.662Z,2.70
2023-02-19T04:04:31.759Z,2.15
2023-02-19T04:07:38.130Z,2.97
2023-02-19T04:10:40.979Z,2.28
2023-02-19T04:13:58.698Z,2.63
2023-02-19T04:17:05.453Z,2.67
2023-02-19T04:20:10.232Z,2.60
2023-02-19T04:23:13.745Z,2.38
2023-02-19T04:26:16.106Z,2.47
2023-02-19T04:29:17.761Z,3.27
2023-02-19T04:32:19.426Z,2.35
2023-02-19T04:35:21.061Z,2.28
2023-02-19T04:38:22.707Z,4.05
2023-02-19T04:41:24.321Z,2.20
2023-02-19T04:44:25.918Z,1.80
2023-02-19T04:47:27.578Z,2.83
2023-02-19T04:50:29.258Z,2.28
2023-02-19T04:53:30.978Z,2.83
2023-02-19T04:56:32.641Z,2.67
2023-02-19T04:59:34.207Z,2.00
2023-02-19T05:02:35.989Z,2.30
2023-02-19T05:05:37.707Z,2.97
2023-02-19T05:08:40.195Z,2.85
2023-02-19T05:11:41.905Z,2.97
2023-02-19T05:14:43.718Z,2.57
2023-02-19T05:17:45.319Z,2.85
2023-02-19T05:20:46.910Z,2.55
2023-02-19T05:23:48.472Z,2.45
2023-02-19T05:26:51.138Z,2.75
2023-02-19T05:29:52.728Z,2.70
2023-02-19T05:32:54.303Z,2.80
2023-02-19T05:35:56.423Z,3.30
2023-02-19T05:38:58.787Z,4.03
2023-02-19T05:42:00.395Z,3.05
2023-02-19T05:45:02.023Z,3.93
2023-02-19T05:48:04.624Z,3.83
2023-02-19T05:51:09.492Z,3.47
2023-02-19T05:54:11.362Z,4.57
2023-02-19T05:57:12.971Z,4.32
2023-02-19T06:00:18.236Z,4.30
2023-02-19T06:03:20.103Z,4.32
2023-02-19T06:06:22.207Z,4.60
2023-02-19T06:09:23.880Z,5.18
2023-02-19T06:12:25.607Z,4.43
2023-02-19T06:15:27.310Z,5.07
2023-02-19T06:18:29.017Z,5.10
2023-02-19T06:21:30.801Z,6.05
2023-02-19T06:24:32.523Z,5.35
2023-02-19T06:27:34.198Z,5.50
2023-02-19T06:30:36.469Z,6.50
2023-02-19T06:33:42.462Z,5.63
2023-02-19T06:36:46.566Z,4.82
2023-02-19T06:39:48.258Z,5.03
2023-02-19T06:42:52.919Z,5.20
2023-02-19T06:46:13.020Z,5.57
2023-02-19T06:49:15.381Z,5.38
2023-02-19T06:52:16.985Z,4.85
2023-02-19T06:55:18.651Z,4.88
2023-02-19T06:58:20.243Z,4.40
2023-02-19T07:01:23.150Z,4.30
2023-02-19T07:04:24.878Z,4.78
2023-02-19T07:07:26.542Z,5.32
2023-02-19T07:10:28.186Z,5.00
2023-02-19T07:13:31.022Z,3.70
2023-02-19T07:16:32.772Z,4.23
2023-02-19T07:19:34.433Z,3.85
2023-02-19T07:22:36.117Z,4.13
2023-02-19T07:25:38.942Z,4.63
2023-02-19T07:28:42.295Z,4.10
2023-02-19T07:31:44.201Z,3.87
2023-02-19T07:34:45.876Z,4.70
2023-02-19T07:37:47.485Z,3.80
2023-02-19T07:41:00.348Z,3.33
2023-02-19T07:44:01.987Z,4.20
2023-02-19T07:47:03.600Z,3.60
2023-02-19T07:50:05.503Z,3.95
2023-02-19T07:53:07.608Z,3.65
2023-02-19T07:56:12.185Z,3.80
2023-02-19T07:59:13.929Z,4.13
2023-02-19T08:02:35.900Z,3.70
2023-02-19T08:05:40.076Z,4.30
2023-02-19T08:08:41.820Z,4.00
2023-02-19T08:12:02.274Z,3.58
2023-02-19T08:15:04.048Z,3.88
2023-02-19T08:18:05.666Z,4.20
2023-02-19T08:21:07.324Z,4.15
2023-02-19T08:24:09.067Z,4.50
2023-02-19T08:27:10.737Z,3.15
2023-02-19T08:30:12.709Z,4.20
2023-02-19T08:33:17.637Z,4.40
2023-02-19T08:36:19.361Z,5.18
2023-02-19T08:39:21.329Z,5.22
2023-02-19T08:42:22.997Z,5.07
2023-02-19T08:45:24.627Z,4.95
2023-02-19T08:48:26.370Z,6.63
2023-02-19T08:51:28.006Z,8.63
2023-02-19T08:54:30.306Z,7.38
2023-02-19T08:57:32.102Z,8.05
2023-02-19T09:00:33.736Z,9.15
2023-02-19T09:03:35.356Z,9.10
2023-02-19T09:06:39.156Z,9.43
2023-02-19T09:09:41.655Z,9.75
2023-02-19T09:12:43.257Z,10.20
2023-02-19T09:15:45.925Z,9.77
2023-02-19T09:18:47.626Z,10.23
2023-02-19T09:21:49.284Z,11.95
2023-02-19T09:24:50.984Z,11.77
2023-02-19T09:27:56.606Z,10.30
2023-02-19T09:31:04.382Z,12.80
2023-02-19T09:34:06.020Z,11.53
2023-02-19T09:37:08.473Z,11.93
2023-02-19T09:40:10.822Z,12.35
2023-02-19T09:43:19.821Z,12.07
2023-02-19T09:46:31.928Z,11.95
2023-02-19T09:49:40.836Z,10.77
2023-02-19T09:52:56.183Z,11.30
2023-02-19T09:55:57.845Z,10.85
2023-02-19T09:59:00.310Z,11.45
2023-02-19T10:02:24.451Z,10.45
2023-02-19T10:05:26.747Z,12.47
2023-02-19T10:08:33.609Z,12.13
2023-02-19T10:11:35.441Z,13.00
2023-02-19T10:14:42.869Z,11.68
2023-02-19T10:17:44.680Z,13.25
2023-02-19T10:20:47.550Z,11.23
2023-02-19T10:23:56.990Z,12.55
2023-02-19T10:26:58.605Z,11.45
2023-02-19T10:30:01.427Z,11.40
2023-02-19T10:33:10.710Z,11.60
2023-02-19T10:36:25.172Z,12.60
2023-02-19T10:39:45.350Z,10.98
2023-02-19T10:42:54.137Z,11.43
2023-02-19T10:45:55.863Z,12.02
2023-02-19T10:49:00.288Z,11.68
2023-02-19T10:52:34.420Z,12.13
2023-02-19T10:55:38.085Z,9.02
2023-02-19T10:58:42.416Z,7.97
2023-02-19T11:02:03.462Z,6.63
2023-02-19T11:05:17.149Z,6.35
2023-02-19T11:08:23.557Z,6.50
2023-02-19T11:11:52.414Z,6.93
2023-02-19T11:14:54.792Z,6.10
2023-02-19T11:18:10.666Z,7.25
2023-02-19T11:21:28.702Z,7.57
2023-02-19T11:24:37.615Z,6.50
2023-02-19T11:27:55.037Z,6.65
2023-02-19T11:31:14.784Z,7.65
2023-02-19T11:34:24.830Z,6.50
2023-02-19T11:37:26.555Z,9.25
2023-02-19T11:40:45.600Z,8.43
2023-02-19T11:44:05.685Z,6.18
2023-02-19T11:47:32.296Z,6.13
2023-02-19T11:50:55.989Z,5.50
2023-02-19T11:54:13.580Z,5.40
2023-02-19T11:57:15.314Z,5.40
2023-02-19T12:00:19.641Z,5.25
2023-02-19T12:03:55.586Z,6.35
2023-02-19T12:07:00.205Z,6.10
2023-02-19T12:10:25.455Z,6.63
2023-02-19T12:13:39.376Z,5.93
2023-02-19T12:16:46.323Z,6.10
2023-02-19T12:19:57.237Z,6.90
2023-02-19T12:23:35.740Z,6.65
2023-02-19T12:26:55.955Z,6.32
2023-02-19T12:30:09.416Z,5.23
2023-02-19T12:33:29.235Z,6.55
2023-02-19T12:36:52.851Z,6.03
2023-02-19T12:40:13.107Z,5.78
2023-02-19T12:43:21.314Z,5.43
2023-02-19T12:46:32.409Z,6.43
2023-02-19T12:49:42.233Z,4.57
2023-02-19T12:52:47.555Z,5.20
2023-02-19T12:55:49.468Z,5.13
2023-02-19T12:58:56.032Z,2.40
2023-02-19T13:02:11.188Z,2.37
2023-02-19T13:05:24.107Z,3.03
2023-02-19T13:08:36.599Z,3.83
2023-02-19T13:12:10.485Z,3.38
2023-02-19T13:15:20.629Z,3.05
2023-02-19T13:18:37.104Z,3.50
2023-02-19T13:21:57.176Z,3.42
2023-02-19T13:24:59.867Z,3.95
2023-02-19T13:28:26.563Z,4.57
2023-02-19T13:31:49.885Z,4.68
2023-02-19T13:35:28.543Z,5.10
2023-02-19T13:38:30.221Z,5.88
2023-02-19T13:41:41.569Z,3.78
2023-02-19T13:44:48.481Z,3.00
2023-02-19T13:47:50.153Z,3.08
2023-02-19T13:51:18.835Z,3.20
2023-02-19T13:54:28.793Z,2.15
2023-02-19T13:57:30.506Z,4.15
2023-02-19T14:00:50.420Z,2.30
2023-02-19T14:04:08.412Z,5.00
2023-02-19T14:07:09.980Z,6.03
2023-02-19T14:10:14.622Z,3.28
2023-02-19T14:13:51.718Z,3.70
2023-02-19T14:17:25.618Z,2.47
2023-02-19T14:20:41.903Z,1.55
2023-02-19T14:23:44.168Z,1.23
2023-02-19T14:26:45.927Z,1.60
2023-02-19T14:29:48.121Z,1.65
2023-02-19T14:32:54.553Z,1.60
2023-02-19T14:36:06.013Z,1.48
2023-02-19T14:39:10.781Z,1.27
2023-02-19T14:42:22.684Z,1.67
2023-02-19T14:45:27.270Z,2.00
2023-02-19T14:48:38.422Z,1.33
2023-02-19T14:51:44.279Z,1.52
2023-02-19T14:54:54.421Z,2.67
2023-02-19T14:57:59.801Z,1.52
2023-02-19T15:01:01.669Z,1.48
2023-02-19T15:04:04.137Z,1.15
2023-02-19T15:07:11.341Z,1.27
2023-02-19T15:10:14.623Z,2.40
2023-02-19T15:13:22.419Z,1.10
2023-02-19T15:16:27.007Z,1.55
2023-02-19T15:19:31.234Z,1.90
2023-02-19T15:22:33.076Z,2.13
2023-02-19T15:25:37.780Z,2.70
2023-02-19T15:28:39.570Z,2.13
2023-02-19T15:31:55.866Z,2.88
2023-02-19T15:35:02.974Z,2.25
2023-02-19T15:38:04.647Z,2.95
2023-02-19T15:41:06.407Z,1.47
2023-02-19T15:44:28.997Z,1.45
2023-02-19T15:47:35.721Z,2.15
2023-02-19T15:50:44.061Z,1.20
2023-02-19T15:53:51.279Z,3.08
2023-02-19T15:56:56.777Z,2.27
2023-02-19T16:00:26.864Z,1.38
2023-02-19T16:03:30.006Z,2.40
2023-02-19T16:06:50.235Z,2.20
2023-02-19T16:10:16.194Z,2.60
2023-02-19T16:13:26.970Z,1.80
2023-02-19T16:16:35.973Z,2.90
2023-02-19T16:19:46.573Z,2.20
2023-02-19T16:22:48.562Z,2.60
2023-02-19T16:26:00.747Z,3.20
2023-02-19T16:29:02.388Z,1.77
2023-02-19T16:32:07.423Z,2.60
2023-02-19T16:35:39.969Z,3.05
2023-02-19T16:38:41.601Z,3.35
2023-02-19T16:41:46.661Z,1.95
2023-02-19T16:44:48.410Z,2.37
2023-02-19T16:47:51.309Z,1.60
2023-02-19T16:50:53.092Z,2.55
2023-02-19T16:53:54.688Z,1.25
2023-02-19T16:56:56.264Z,1.92
2023-02-19T16:59:57.960Z,2.60
2023-02-19T17:03:03.458Z,2.35
2023-02-19T17:06:05.600Z,2.35
2023-02-19T17:09:08.681Z,2.78
2023-02-19T17:12:16.088Z,3.65
2023-02-19T17:15:18.395Z,2.90
2023-02-19T17:18:20.061Z,3.40
2023-02-19T17:21:33.408Z,2.72
2023-02-19T17:24:35.172Z,3.50
2023-02-19T17:27:37.012Z,2.28
2023-02-19T17:30:40.118Z,2.37
2023-02-19T17:33:42.829Z,2.00
2023-02-19T17:36:47.989Z,1.88
2023-02-19T17:39:49.601Z,2.60
2023-02-19T17:42:51.434Z,1.38
2023-02-19T17:45:53.140Z,1.17
2023-02-19T17:48:55.174Z,1.60
2023-02-19T17:51:57.627Z,7.07
2023-02-19T17:54:59.371Z,10.55
2023-02-19T17:58:01.377Z,3.92
2023-02-19T18:01:03.094Z,2.83
2023-02-19T18:04:05.349Z,2.55
2023-02-19T18:07:07.056Z,2.30
2023-02-19T18:10:09.410Z,3.10
2023-02-19T18:13:11.108Z,2.60
2023-02-19T18:16:15.551Z,2.43
2023-02-19T18:19:17.456Z,2.45
2023-02-19T18:22:19.274Z,3.08
2023-02-19T18:25:21.301Z,2.70
2023-02-19T18:28:22.923Z,3.03
2023-02-19T18:31:24.769Z,3.13
2023-02-19T18:34:29.081Z,2.25
2023-02-19T18:37:32.873Z,2.67
2023-02-19T18:40:34.611Z,2.90
2023-02-19T18:43:36.375Z,2.45
2023-02-19T18:46:39.026Z,2.87
2023-02-19T18:49:40.787Z,2.47
2023-02-19T18:52:42.472Z,3.30
2023-02-19T18:55:44.154Z,2.78
2023-02-19T18:58:45.742Z,2.97
2023-02-19T19:01:47.565Z,3.53
2023-02-19T19:04:51.531Z,4.03
2023-02-19T19:07:59.328Z,3.75
2023-02-19T19:11:01.058Z,3.72
2023-02-19T19:14:02.730Z,3.92
2023-02-19T19:17:04.632Z,3.50
2023-02-19T19:20:07.009Z,4.47
2023-02-19T19:23:08.611Z,5.00
2023-02-19T19:26:11.229Z,4.93
2023-02-19T19:29:15.978Z,3.72
2023-02-19T19:32:17.726Z,3.83
2023-02-19T19:35:20.082Z,4.15
2023-02-19T19:38:21.725Z,5.63
2023-02-19T19:41:23.403Z,5.00
2023-02-19T19:44:25.012Z,5.35
2023-02-19T19:47:26.821Z,3.83
2023-02-19T19:50:28.482Z,4.82
2023-02-19T19:53:30.221Z,6.18
2023-02-19T19:56:31.825Z,4.43
2023-02-19T19:59:33.426Z,4.78
2023-02-19T20:02:35.052Z,4.73
2023-02-19T20:05:36.790Z,5.40
2023-02-19T20:08:38.476Z,4.13
2023-02-19T20:11:58.304Z,4.88
2023-02-19T20:15:00.067Z,4.35
2023-02-19T20:18:02.142Z,4.60
2023-02-19T20:21:03.921Z,5.07
2023-02-19T20:24:05.895Z,5.45
2023-02-19T20:27:08.046Z,4.28
2023-02-19T20:30:13.506Z,5.18
2023-02-19T20:33:15.200Z,6.10
2023-02-19T20:36:17.936Z,5.70
2023-02-19T20:39:21.359Z,5.68
2023-02-19T20:42:22.987Z,5.70
2023-02-19T20:45:24.634Z,5.60
2023-02-19T20:48:26.217Z,5.90
2023-02-19T20:51:27.834Z,6.82
2023-02-19T20:54:32.089Z,6.15
2023-02-19T20:57:33.747Z,6.10
2023-02-19T21:00:35.383Z,5.18
2023-02-19T21:03:37.005Z,5.40
2023-02-19T21:06:38.710Z,5.25
2023-02-19T21:09:40.472Z,5.55
2023-02-19T21:12:42.261Z,6.25
2023-02-19T21:15:44.116Z,5.75
2023-02-19T21:18:45.694Z,5.93
2023-02-19T21:21:47.468Z,6.07
2023-02-19T21:24:53.230Z,5.30
2023-02-19T21:27:54.857Z,6.50
2023-02-19T21:30:56.565Z,5.65
2023-02-19T21:33:58.148Z,6.10
2023-02-19T21:36:59.940Z,6.30
2023-02-19T21:40:01.650Z,6.90
2023-02-19T21:43:04.286Z,5.70
2023-02-19T21:46:05.893Z,5.90
2023-02-19T21:49:07.671Z,6.30
2023-02-19T21:52:09.473Z,4.85
2023-02-19T21:55:11.106Z,5.65
2023-02-19T21:58:12.744Z,4.70
2023-02-19T22:01:14.420Z,4.05
2023-02-19T22:04:19.098Z,4.97
2023-02-19T22:07:21.866Z,4.28
2023-02-19T22:10:23.601Z,6.32
2023-02-19T22:13:25.231Z,4.32
2023-02-19T22:16:28.716Z,5.10
2023-02-19T22:19:30.365Z,6.07
2023-02-19T22:22:32.033Z,5.00
2023-02-19T22:25:33.659Z,5.78
2023-02-19T22:28:35.294Z,4.45
2023-02-19T22:31:37.103Z,4.63
2023-02-19T22:34:40.473Z,5.87
2023-02-19T22:37:42.118Z,5.60
2023-02-19T22:40:43.858Z,6.22
2023-02-19T22:43:46.151Z,4.85
2023-02-19T22:46:57.189Z,6.45
2023-02-19T22:49:58.821Z,5.50
2023-02-19T22:53:00.533Z,4.82
2023-02-19T22:56:02.165Z,3.95
2023-02-19T22:59:03.824Z,5.00
2023-02-19T23:02:05.491Z,5.60
2023-02-19T23:05:07.220Z,5.70
2023-02-19T23:08:08.882Z,5.82
2023-02-19T23:11:11.983Z,4.22
2023-02-19T23:14:17.101Z,5.32
2023-02-19T23:17:20.302Z,4.55
2023-02-19T23:20:21.908Z,6.63
2023-02-19T23:23:23.518Z,6.00
2023-02-19T23:26:25.170Z,6.30
2023-02-19T23:29:28.086Z,5.20
2023-02-19T23:32:29.723Z,6.47
2023-02-19T23:35:32.004Z,6.87
2023-02-19T23:38:33.978Z,5.75
2023-02-19T23:41:35.557Z,5.03
2023-02-19T23:44:37.191Z,5.53
2023-02-19T23:47:38.775Z,5.60
2023-02-19T23:50:40.366Z,5.50
2023-02-19T23:53:42.013Z,5.80
2023-02-19T23:56:43.864Z,4.82
2023-02-19T23:59:47.258Z,5.43
